sensor_id;sensor_type;location;lat;lon;timestamp;temperature;humidity
8408;DHT22;4241;48.452;9.216;2023-08-31T00:04:51;14.60;99.90
8408;DHT22;4241;48.452;9.216;2023-08-31T00:07:21;14.30;99.90
8408;DHT22;4241;48.452;9.216;2023-08-31T00:09:47;14.30;99.90
8408;DHT22;4241;48.452;9.216;2023-08-31T00:19:36;14.10;99.90
8408;DHT22;4241;48.452;9.216;2023-08-31T00:24:31;14.00;99.90
8408;DHT22;4241;48.452;9.216;2023-08-31T00:27:02;14.00;99.90
8408;DHT22;4241;48.452;9.216;2023-08-31T00:29:29;14.00;99.90
8408;DHT22;4241;48.452;9.216;2023-08-31T00:31:56;13.90;99.90
8408;DHT22;4241;48.452;9.216;2023-08-31T00:34:23;14.10;99.90
8408;DHT22;4241;48.452;9.216;2023-08-31T00:39:17;14.00;99.90
8408;DHT22;4241;48.452;9.216;2023-08-31T00:41:47;14.10;99.90
8408;DHT22;4241;48.452;9.216;2023-08-31T00:44:15;14.00;99.90
8408;DHT22;4241;48.452;9.216;2023-08-31T00:46:42;14.00;99.90
8408;DHT22;4241;48.452;9.216;2023-08-31T00:49:12;14.00;99.90
8408;DHT22;4241;48.452;9.216;2023-08-31T00:54:07;14.10;99.90
8408;DHT22;4241;48.452;9.216;2023-08-31T00:59:02;14.10;99.90
8408;DHT22;4241;48.452;9.216;2023-08-31T01:01:36;14.00;99.90
8408;DHT22;4241;48.452;9.216;2023-08-31T01:04:12;14.00;99.90
8408;DHT22;4241;48.452;9.216;2023-08-31T01:06:54;14.00;99.90
8408;DHT22;4241;48.452;9.216;2023-08-31T01:09:31;14.00;99.90
8408;DHT22;4241;48.452;9.216;2023-08-31T01:12:03;14.00;99.90
8408;DHT22;4241;48.452;9.216;2023-08-31T01:14:38;14.00;99.90
8408;DHT22;4241;48.452;9.216;2023-08-31T01:17:08;13.90;99.90
8408;DHT22;4241;48.452;9.216;2023-08-31T01:19:44;14.00;99.90
8408;DHT22;4241;48.452;9.216;2023-08-31T01:22:16;13.90;99.90
8408;DHT22;4241;48.452;9.216;2023-08-31T01:24:46;13.90;99.90
8408;DHT22;4241;48.452;9.216;2023-08-31T01:27:13;13.90;99.90
8408;DHT22;4241;48.452;9.216;2023-08-31T01:29:40;13.90;99.90
8408;DHT22;4241;48.452;9.216;2023-08-31T01:32:07;14.00;99.90
8408;DHT22;4241;48.452;9.216;2023-08-31T01:34:34;13.70;99.90
8408;DHT22;4241;48.452;9.216;2023-08-31T01:37:07;13.90;99.90
8408;DHT22;4241;48.452;9.216;2023-08-31T01:39:39;13.80;99.90
8408;DHT22;4241;48.452;9.216;2023-08-31T01:42:11;13.90;99.90
8408;DHT22;4241;48.452;9.216;2023-08-31T01:47:07;13.90;99.90
8408;DHT22;4241;48.452;9.216;2023-08-31T01:49:37;13.80;99.90
8408;DHT22;4241;48.452;9.216;2023-08-31T01:52:05;13.90;99.90
8408;DHT22;4241;48.452;9.216;2023-08-31T01:54:32;13.80;99.90
8408;DHT22;4241;48.452;9.216;2023-08-31T01:57:00;13.80;99.90
8408;DHT22;4241;48.452;9.216;2023-08-31T01:59:29;13.80;99.90
8408;DHT22;4241;48.452;9.216;2023-08-31T02:01:56;13.80;99.90
8408;DHT22;4241;48.452;9.216;2023-08-31T02:11:44;13.80;99.90
8408;DHT22;4241;48.452;9.216;2023-08-31T02:14:11;13.80;99.90
8408;DHT22;4241;48.452;9.216;2023-08-31T02:16:39;13.80;99.90
8408;DHT22;4241;48.452;9.216;2023-08-31T02:19:06;13.70;99.90
8408;DHT22;4241;48.452;9.216;2023-08-31T02:24:00;13.60;99.90
8408;DHT22;4241;48.452;9.216;2023-08-31T02:31:21;13.40;99.90
8408;DHT22;4241;48.452;9.216;2023-08-31T02:33:49;13.60;99.90
8408;DHT22;4241;48.452;9.216;2023-08-31T02:36:16;13.60;99.90
8408;DHT22;4241;48.452;9.216;2023-08-31T02:38:43;13.60;99.90
8408;DHT22;4241;48.452;9.216;2023-08-31T02:41:10;13.60;99.90
8408;DHT22;4241;48.452;9.216;2023-08-31T02:43:36;13.60;99.90
8408;DHT22;4241;48.452;9.216;2023-08-31T02:48:32;13.60;99.90
8408;DHT22;4241;48.452;9.216;2023-08-31T02:51:01;13.60;99.90
8408;DHT22;4241;48.452;9.216;2023-08-31T02:53:29;13.60;99.90
8408;DHT22;4241;48.452;9.216;2023-08-31T02:55:56;13.60;99.90
8408;DHT22;4241;48.452;9.216;2023-08-31T02:58:23;13.70;99.90
8408;DHT22;4241;48.452;9.216;2023-08-31T03:00:50;13.50;99.90
8408;DHT22;4241;48.452;9.216;2023-08-31T03:03:17;13.60;99.90
8408;DHT22;4241;48.452;9.216;2023-08-31T03:05:45;13.60;99.90
8408;DHT22;4241;48.452;9.216;2023-08-31T03:08:13;13.50;99.90
8408;DHT22;4241;48.452;9.216;2023-08-31T03:10:40;13.60;99.90
8408;DHT22;4241;48.452;9.216;2023-08-31T03:13:07;13.40;99.90
8408;DHT22;4241;48.452;9.216;2023-08-31T03:15:34;13.50;99.90
8408;DHT22;4241;48.452;9.216;2023-08-31T03:20:28;13.40;99.90
8408;DHT22;4241;48.452;9.216;2023-08-31T03:25:23;13.50;99.90
8408;DHT22;4241;48.452;9.216;2023-08-31T03:27:50;13.40;99.90
8408;DHT22;4241;48.452;9.216;2023-08-31T03:32:44;13.40;99.90
8408;DHT22;4241;48.452;9.216;2023-08-31T03:35:11;13.40;99.90
8408;DHT22;4241;48.452;9.216;2023-08-31T03:37:38;13.30;99.90
8408;DHT22;4241;48.452;9.216;2023-08-31T03:40:06;13.30;99.90
8408;DHT22;4241;48.452;9.216;2023-08-31T03:42:34;13.30;99.90
8408;DHT22;4241;48.452;9.216;2023-08-31T03:45:01;13.30;99.90
8408;DHT22;4241;48.452;9.216;2023-08-31T03:49:56;13.30;99.90
8408;DHT22;4241;48.452;9.216;2023-08-31T03:52:23;13.40;99.90
8408;DHT22;4241;48.452;9.216;2023-08-31T03:57:17;13.30;99.90
8408;DHT22;4241;48.452;9.216;2023-08-31T03:59:45;13.20;99.90
8408;DHT22;4241;48.452;9.216;2023-08-31T04:04:39;13.40;99.90
8408;DHT22;4241;48.452;9.216;2023-08-31T04:07:05;13.40;99.90
8408;DHT22;4241;48.452;9.216;2023-08-31T04:11:59;13.40;99.90
8408;DHT22;4241;48.452;9.216;2023-08-31T04:14:26;13.30;99.90
8408;DHT22;4241;48.452;9.216;2023-08-31T04:16:55;13.50;99.90
8408;DHT22;4241;48.452;9.216;2023-08-31T04:19:21;13.40;99.90
8408;DHT22;4241;48.452;9.216;2023-08-31T04:24:16;13.40;99.90
8408;DHT22;4241;48.452;9.216;2023-08-31T04:26:43;13.40;99.90
8408;DHT22;4241;48.452;9.216;2023-08-31T04:29:10;13.30;99.90
8408;DHT22;4241;48.452;9.216;2023-08-31T04:31:37;13.50;99.90
8408;DHT22;4241;48.452;9.216;2023-08-31T04:34:06;13.50;99.90
8408;DHT22;4241;48.452;9.216;2023-08-31T04:39:00;13.40;99.90
8408;DHT22;4241;48.452;9.216;2023-08-31T04:48:48;13.30;99.90
8408;DHT22;4241;48.452;9.216;2023-08-31T04:51:29;13.40;99.90
8408;DHT22;4241;48.452;9.216;2023-08-31T04:56:25;13.30;99.90
8408;DHT22;4241;48.452;9.216;2023-08-31T05:01:19;13.30;99.90
8408;DHT22;4241;48.452;9.216;2023-08-31T05:08:41;13.50;99.90
8408;DHT22;4241;48.452;9.216;2023-08-31T05:11:08;13.50;99.90
8408;DHT22;4241;48.452;9.216;2023-08-31T05:13:35;13.40;99.90
8408;DHT22;4241;48.452;9.216;2023-08-31T05:16:03;13.40;99.90
8408;DHT22;4241;48.452;9.216;2023-08-31T05:18:30;13.40;99.90
8408;DHT22;4241;48.452;9.216;2023-08-31T05:23:24;13.50;99.90
8408;DHT22;4241;48.452;9.216;2023-08-31T05:25:52;13.50;99.90
8408;DHT22;4241;48.452;9.216;2023-08-31T05:28:19;13.50;99.90
8408;DHT22;4241;48.452;9.216;2023-08-31T05:30:49;13.40;99.90
8408;DHT22;4241;48.452;9.216;2023-08-31T05:33:16;13.50;99.90
8408;DHT22;4241;48.452;9.216;2023-08-31T05:35:43;13.50;99.90
8408;DHT22;4241;48.452;9.216;2023-08-31T05:43:06;13.50;99.90
8408;DHT22;4241;48.452;9.216;2023-08-31T05:48:00;13.60;99.90
8408;DHT22;4241;48.452;9.216;2023-08-31T05:50:27;13.50;99.90
8408;DHT22;4241;48.452;9.216;2023-08-31T05:52:53;13.50;99.90
8408;DHT22;4241;48.452;9.216;2023-08-31T05:55:20;13.50;99.90
8408;DHT22;4241;48.452;9.216;2023-08-31T06:00:15;13.50;99.90
8408;DHT22;4241;48.452;9.216;2023-08-31T06:05:10;13.60;99.90
8408;DHT22;4241;48.452;9.216;2023-08-31T06:10:06;13.60;99.90
8408;DHT22;4241;48.452;9.216;2023-08-31T06:17:28;13.80;99.90
8408;DHT22;4241;48.452;9.216;2023-08-31T06:22:22;13.90;99.90
8408;DHT22;4241;48.452;9.216;2023-08-31T06:29:44;14.20;99.90
8408;DHT22;4241;48.452;9.216;2023-08-31T06:34:39;14.20;99.90
8408;DHT22;4241;48.452;9.216;2023-08-31T06:37:06;14.30;99.90
8408;DHT22;4241;48.452;9.216;2023-08-31T06:42:01;14.50;99.90
8408;DHT22;4241;48.452;9.216;2023-08-31T06:44:29;14.60;99.90
8408;DHT22;4241;48.452;9.216;2023-08-31T06:49:23;14.60;99.90
8408;DHT22;4241;48.452;9.216;2023-08-31T06:51:51;14.50;99.90
8408;DHT22;4241;48.452;9.216;2023-08-31T06:54:19;14.50;99.90
8408;DHT22;4241;48.452;9.216;2023-08-31T06:56:46;14.60;99.90
8408;DHT22;4241;48.452;9.216;2023-08-31T06:59:13;14.70;99.90
8408;DHT22;4241;48.452;9.216;2023-08-31T07:01:40;14.70;99.90
8408;DHT22;4241;48.452;9.216;2023-08-31T07:04:07;14.70;99.90
8408;DHT22;4241;48.452;9.216;2023-08-31T07:09:02;14.80;99.90
8408;DHT22;4241;48.452;9.216;2023-08-31T07:11:31;14.80;99.90
8408;DHT22;4241;48.452;9.216;2023-08-31T07:16:25;14.80;99.90
8408;DHT22;4241;48.452;9.216;2023-08-31T07:18:51;14.90;99.90
8408;DHT22;4241;48.452;9.216;2023-08-31T07:21:18;14.90;99.90
8408;DHT22;4241;48.452;9.216;2023-08-31T07:23:45;15.00;99.90
8408;DHT22;4241;48.452;9.216;2023-08-31T07:26:13;15.00;99.90
8408;DHT22;4241;48.452;9.216;2023-08-31T07:28:41;14.90;99.90
8408;DHT22;4241;48.452;9.216;2023-08-31T07:31:08;15.00;99.90
8408;DHT22;4241;48.452;9.216;2023-08-31T07:33:35;15.10;99.90
8408;DHT22;4241;48.452;9.216;2023-08-31T07:36:02;15.10;99.90
8408;DHT22;4241;48.452;9.216;2023-08-31T07:43:26;15.20;99.90
8408;DHT22;4241;48.452;9.216;2023-08-31T07:48:20;15.20;99.90
8408;DHT22;4241;48.452;9.216;2023-08-31T07:50:48;15.30;99.90
8408;DHT22;4241;48.452;9.216;2023-08-31T07:53:15;15.50;99.90
8408;DHT22;4241;48.452;9.216;2023-08-31T07:55:50;15.50;99.90
8408;DHT22;4241;48.452;9.216;2023-08-31T07:58:18;15.70;99.90
8408;DHT22;4241;48.452;9.216;2023-08-31T08:00:46;15.90;99.90
8408;DHT22;4241;48.452;9.216;2023-08-31T08:05:40;16.30;99.90
8408;DHT22;4241;48.452;9.216;2023-08-31T08:10:34;16.60;99.90
8408;DHT22;4241;48.452;9.216;2023-08-31T08:13:01;16.70;99.90
8408;DHT22;4241;48.452;9.216;2023-08-31T08:15:29;16.50;99.90
8408;DHT22;4241;48.452;9.216;2023-08-31T08:17:57;16.70;99.90
8408;DHT22;4241;48.452;9.216;2023-08-31T08:22:54;16.90;99.90
8408;DHT22;4241;48.452;9.216;2023-08-31T08:25:21;17.00;99.90
8408;DHT22;4241;48.452;9.216;2023-08-31T08:27:48;18.20;99.90
8408;DHT22;4241;48.452;9.216;2023-08-31T08:30:15;17.20;99.90
8408;DHT22;4241;48.452;9.216;2023-08-31T08:32:42;17.20;99.90
8408;DHT22;4241;48.452;9.216;2023-08-31T08:35:11;17.10;99.90
8408;DHT22;4241;48.452;9.216;2023-08-31T08:37:37;17.00;99.90
8408;DHT22;4241;48.452;9.216;2023-08-31T08:40:05;17.10;99.90
8408;DHT22;4241;48.452;9.216;2023-08-31T08:42:36;17.20;99.90
8408;DHT22;4241;48.452;9.216;2023-08-31T08:45:08;17.30;99.90
8408;DHT22;4241;48.452;9.216;2023-08-31T08:47:36;17.50;99.90
8408;DHT22;4241;48.452;9.216;2023-08-31T08:50:03;17.70;99.90
8408;DHT22;4241;48.452;9.216;2023-08-31T08:52:32;17.70;99.90
8408;DHT22;4241;48.452;9.216;2023-08-31T08:55:01;18.00;99.90
8408;DHT22;4241;48.452;9.216;2023-08-31T08:57:28;18.00;99.90
8408;DHT22;4241;48.452;9.216;2023-08-31T08:59:57;18.10;99.90
8408;DHT22;4241;48.452;9.216;2023-08-31T09:02:24;18.20;99.90
8408;DHT22;4241;48.452;9.216;2023-08-31T09:04:51;18.20;99.90
8408;DHT22;4241;48.452;9.216;2023-08-31T09:07:20;18.20;99.90
8408;DHT22;4241;48.452;9.216;2023-08-31T09:09:51;18.40;99.90
8408;DHT22;4241;48.452;9.216;2023-08-31T09:12:20;18.40;99.90
8408;DHT22;4241;48.452;9.216;2023-08-31T09:14:57;18.50;99.90
8408;DHT22;4241;48.452;9.216;2023-08-31T09:17:24;18.40;99.90
8408;DHT22;4241;48.452;9.216;2023-08-31T09:19:59;18.50;99.90
8408;DHT22;4241;48.452;9.216;2023-08-31T09:22:26;18.70;99.90
8408;DHT22;4241;48.452;9.216;2023-08-31T09:24:54;18.70;99.90
8408;DHT22;4241;48.452;9.216;2023-08-31T09:27:21;18.90;99.90
8408;DHT22;4241;48.452;9.216;2023-08-31T09:29:48;18.80;99.90
8408;DHT22;4241;48.452;9.216;2023-08-31T09:32:16;18.70;99.90
8408;DHT22;4241;48.452;9.216;2023-08-31T09:34:43;18.50;99.90
8408;DHT22;4241;48.452;9.216;2023-08-31T09:37:10;18.40;99.90
8408;DHT22;4241;48.452;9.216;2023-08-31T09:39:38;18.50;99.90
8408;DHT22;4241;48.452;9.216;2023-08-31T09:42:07;18.50;99.90
8408;DHT22;4241;48.452;9.216;2023-08-31T09:44:33;18.40;99.90
8408;DHT22;4241;48.452;9.216;2023-08-31T09:47:00;18.30;99.90
8408;DHT22;4241;48.452;9.216;2023-08-31T09:49:29;18.10;99.90
8408;DHT22;4241;48.452;9.216;2023-08-31T09:51:58;18.20;99.90
8408;DHT22;4241;48.452;9.216;2023-08-31T09:54:27;18.40;99.90
8408;DHT22;4241;48.452;9.216;2023-08-31T09:56:56;18.50;99.90
8408;DHT22;4241;48.452;9.216;2023-08-31T09:59:27;18.60;99.90
8408;DHT22;4241;48.452;9.216;2023-08-31T10:01:54;18.70;99.90
8408;DHT22;4241;48.452;9.216;2023-08-31T10:04:22;18.80;99.90
8408;DHT22;4241;48.452;9.216;2023-08-31T10:06:50;18.60;99.90
8408;DHT22;4241;48.452;9.216;2023-08-31T10:09:17;18.70;99.90
8408;DHT22;4241;48.452;9.216;2023-08-31T10:11:45;19.00;99.90
8408;DHT22;4241;48.452;9.216;2023-08-31T10:14:13;18.90;99.90
8408;DHT22;4241;48.452;9.216;2023-08-31T10:16:44;18.70;99.90
8408;DHT22;4241;48.452;9.216;2023-08-31T10:19:11;19.00;99.90
8408;DHT22;4241;48.452;9.216;2023-08-31T10:21:40;19.20;99.90
8408;DHT22;4241;48.452;9.216;2023-08-31T10:24:07;19.20;99.90
8408;DHT22;4241;48.452;9.216;2023-08-31T10:26:34;19.30;99.90
8408;DHT22;4241;48.452;9.216;2023-08-31T10:29:01;19.50;99.90
8408;DHT22;4241;48.452;9.216;2023-08-31T10:31:30;19.70;99.90
8408;DHT22;4241;48.452;9.216;2023-08-31T10:34:00;19.70;99.90
8408;DHT22;4241;48.452;9.216;2023-08-31T10:36:37;19.50;99.90
8408;DHT22;4241;48.452;9.216;2023-08-31T10:39:12;19.00;99.90
8408;DHT22;4241;48.452;9.216;2023-08-31T10:41:39;19.00;99.90
8408;DHT22;4241;48.452;9.216;2023-08-31T10:44:18;18.80;99.90
8408;DHT22;4241;48.452;9.216;2023-08-31T10:46:46;19.00;99.90
8408;DHT22;4241;48.452;9.216;2023-08-31T10:49:15;19.30;99.90
8408;DHT22;4241;48.452;9.216;2023-08-31T10:51:44;19.60;99.90
8408;DHT22;4241;48.452;9.216;2023-08-31T10:54:12;19.60;99.90
8408;DHT22;4241;48.452;9.216;2023-08-31T10:57:01;19.10;98.50
8408;DHT22;4241;48.452;9.216;2023-08-31T10:59:45;19.10;99.90
8408;DHT22;4241;48.452;9.216;2023-08-31T11:02:27;19.00;99.90
8408;DHT22;4241;48.452;9.216;2023-08-31T11:05:00;19.00;99.90
8408;DHT22;4241;48.452;9.216;2023-08-31T11:07:29;19.00;99.90
8408;DHT22;4241;48.452;9.216;2023-08-31T11:10:08;18.90;99.90
8408;DHT22;4241;48.452;9.216;2023-08-31T11:12:35;19.00;99.90
8408;DHT22;4241;48.452;9.216;2023-08-31T11:15:02;18.80;99.90
8408;DHT22;4241;48.452;9.216;2023-08-31T11:17:29;18.90;99.90
8408;DHT22;4241;48.452;9.216;2023-08-31T11:19:59;19.00;99.90
8408;DHT22;4241;48.452;9.216;2023-08-31T11:22:26;19.40;99.90
8408;DHT22;4241;48.452;9.216;2023-08-31T11:24:53;19.40;99.90
8408;DHT22;4241;48.452;9.216;2023-08-31T11:27:20;19.50;99.90
8408;DHT22;4241;48.452;9.216;2023-08-31T11:29:48;19.50;99.90
8408;DHT22;4241;48.452;9.216;2023-08-31T11:32:15;19.50;99.90
8408;DHT22;4241;48.452;9.216;2023-08-31T11:34:43;19.70;99.90
8408;DHT22;4241;48.452;9.216;2023-08-31T11:37:12;19.70;99.90
8408;DHT22;4241;48.452;9.216;2023-08-31T11:39:42;20.00;99.90
8408;DHT22;4241;48.452;9.216;2023-08-31T11:42:08;19.90;99.50
8408;DHT22;4241;48.452;9.216;2023-08-31T11:44:35;19.90;99.90
8408;DHT22;4241;48.452;9.216;2023-08-31T11:47:03;20.00;99.40
8408;DHT22;4241;48.452;9.216;2023-08-31T11:49:30;20.10;99.90
8408;DHT22;4241;48.452;9.216;2023-08-31T11:51:57;20.50;96.30
8408;DHT22;4241;48.452;9.216;2023-08-31T11:54:26;20.40;96.10
8408;DHT22;4241;48.452;9.216;2023-08-31T11:56:53;20.80;99.00
8408;DHT22;4241;48.452;9.216;2023-08-31T11:59:20;20.70;98.30
8408;DHT22;4241;48.452;9.216;2023-08-31T12:01:49;21.00;98.50
8408;DHT22;4241;48.452;9.216;2023-08-31T12:04:20;21.10;91.50
8408;DHT22;4241;48.452;9.216;2023-08-31T12:06:50;21.10;96.80
8408;DHT22;4241;48.452;9.216;2023-08-31T12:09:18;21.20;96.60
8408;DHT22;4241;48.452;9.216;2023-08-31T12:11:50;21.30;91.10
8408;DHT22;4241;48.452;9.216;2023-08-31T12:14:19;21.20;91.20
8408;DHT22;4241;48.452;9.216;2023-08-31T12:16:46;21.10;92.00
8408;DHT22;4241;48.452;9.216;2023-08-31T12:19:12;21.20;96.30
8408;DHT22;4241;48.452;9.216;2023-08-31T12:21:39;21.40;98.40
8408;DHT22;4241;48.452;9.216;2023-08-31T12:24:07;21.10;92.70
8408;DHT22;4241;48.452;9.216;2023-08-31T12:26:34;21.00;92.50
8408;DHT22;4241;48.452;9.216;2023-08-31T12:29:03;21.10;99.30
8408;DHT22;4241;48.452;9.216;2023-08-31T12:31:30;21.10;98.60
8408;DHT22;4241;48.452;9.216;2023-08-31T12:33:57;21.20;97.20
8408;DHT22;4241;48.452;9.216;2023-08-31T12:36:25;21.50;95.90
8408;DHT22;4241;48.452;9.216;2023-08-31T12:38:52;21.50;95.60
8408;DHT22;4241;48.452;9.216;2023-08-31T12:41:19;21.50;95.20
8408;DHT22;4241;48.452;9.216;2023-08-31T12:43:45;21.50;94.90
8408;DHT22;4241;48.452;9.216;2023-08-31T12:46:14;21.50;93.90
8408;DHT22;4241;48.452;9.216;2023-08-31T12:48:42;21.70;94.80
8408;DHT22;4241;48.452;9.216;2023-08-31T12:51:09;21.60;93.60
8408;DHT22;4241;48.452;9.216;2023-08-31T12:53:37;21.80;97.60
8408;DHT22;4241;48.452;9.216;2023-08-31T12:56:05;21.80;97.00
8408;DHT22;4241;48.452;9.216;2023-08-31T12:58:32;21.80;93.40
8408;DHT22;4241;48.452;9.216;2023-08-31T13:00:59;21.50;93.50
8408;DHT22;4241;48.452;9.216;2023-08-31T13:03:27;21.60;93.30
8408;DHT22;4241;48.452;9.216;2023-08-31T13:05:54;21.40;96.90
8408;DHT22;4241;48.452;9.216;2023-08-31T13:08:21;21.50;95.40
8408;DHT22;4241;48.452;9.216;2023-08-31T13:10:51;21.40;95.00
8408;DHT22;4241;48.452;9.216;2023-08-31T13:13:19;21.20;92.00
8408;DHT22;4241;48.452;9.216;2023-08-31T13:15:46;21.40;96.10
8408;DHT22;4241;48.452;9.216;2023-08-31T13:18:13;21.30;95.50
8408;DHT22;4241;48.452;9.216;2023-08-31T13:20:48;21.20;91.60
8408;DHT22;4241;48.452;9.216;2023-08-31T13:23:14;21.10;92.70
8408;DHT22;4241;48.452;9.216;2023-08-31T13:25:41;21.00;92.00
8408;DHT22;4241;48.452;9.216;2023-08-31T13:28:08;20.80;95.20
8408;DHT22;4241;48.452;9.216;2023-08-31T13:30:35;20.70;94.30
8408;DHT22;4241;48.452;9.216;2023-08-31T13:33:02;20.80;94.30
8408;DHT22;4241;48.452;9.216;2023-08-31T13:35:29;20.70;94.40
8408;DHT22;4241;48.452;9.216;2023-08-31T13:37:57;20.70;94.50
8408;DHT22;4241;48.452;9.216;2023-08-31T13:40:24;20.30;95.20
8408;DHT22;4241;48.452;9.216;2023-08-31T13:42:54;20.40;94.50
8408;DHT22;4241;48.452;9.216;2023-08-31T13:45:22;20.40;95.00
8408;DHT22;4241;48.452;9.216;2023-08-31T13:47:49;20.70;98.60
8408;DHT22;4241;48.452;9.216;2023-08-31T13:50:16;20.70;96.80
8408;DHT22;4241;48.452;9.216;2023-08-31T13:52:42;20.70;97.50
8408;DHT22;4241;48.452;9.216;2023-08-31T13:55:11;20.60;97.40
8408;DHT22;4241;48.452;9.216;2023-08-31T13:57:38;20.70;97.60
8408;DHT22;4241;48.452;9.216;2023-08-31T14:00:06;20.80;97.10
8408;DHT22;4241;48.452;9.216;2023-08-31T14:02:35;20.80;94.60
8408;DHT22;4241;48.452;9.216;2023-08-31T14:05:03;20.50;95.00
8408;DHT22;4241;48.452;9.216;2023-08-31T14:07:31;20.50;94.50
8408;DHT22;4241;48.452;9.216;2023-08-31T14:09:58;20.60;95.90
8408;DHT22;4241;48.452;9.216;2023-08-31T14:12:26;20.40;95.30
8408;DHT22;4241;48.452;9.216;2023-08-31T14:14:53;20.50;94.70
8408;DHT22;4241;48.452;9.216;2023-08-31T14:17:20;20.40;94.90
8408;DHT22;4241;48.452;9.216;2023-08-31T14:19:47;20.30;92.80
8408;DHT22;4241;48.452;9.216;2023-08-31T14:22:14;20.10;94.60
8408;DHT22;4241;48.452;9.216;2023-08-31T14:24:42;19.90;93.40
8408;DHT22;4241;48.452;9.216;2023-08-31T14:27:09;20.00;92.70
8408;DHT22;4241;48.452;9.216;2023-08-31T14:29:38;20.10;97.60
8408;DHT22;4241;48.452;9.216;2023-08-31T14:32:04;20.40;99.90
8408;DHT22;4241;48.452;9.216;2023-08-31T14:34:31;18.20;95.90
8408;DHT22;4241;48.452;9.216;2023-08-31T14:36:58;20.40;97.60
8408;DHT22;4241;48.452;9.216;2023-08-31T14:39:26;20.50;97.50
8408;DHT22;4241;48.452;9.216;2023-08-31T14:41:55;20.50;99.40
8408;DHT22;4241;48.452;9.216;2023-08-31T14:44:22;20.60;98.40
8408;DHT22;4241;48.452;9.216;2023-08-31T14:46:51;20.60;99.90
8408;DHT22;4241;48.452;9.216;2023-08-31T14:49:18;20.80;99.90
8408;DHT22;4241;48.452;9.216;2023-08-31T14:51:44;20.70;99.90
8408;DHT22;4241;48.452;9.216;2023-08-31T14:54:11;20.70;99.90
8408;DHT22;4241;48.452;9.216;2023-08-31T14:56:38;20.70;99.90
8408;DHT22;4241;48.452;9.216;2023-08-31T14:59:05;20.60;99.90
8408;DHT22;4241;48.452;9.216;2023-08-31T15:01:32;20.50;99.90
8408;DHT22;4241;48.452;9.216;2023-08-31T15:04:00;20.50;99.90
8408;DHT22;4241;48.452;9.216;2023-08-31T15:08:57;20.00;99.90
8408;DHT22;4241;48.452;9.216;2023-08-31T15:11:26;19.90;99.90
8408;DHT22;4241;48.452;9.216;2023-08-31T15:13:52;19.90;99.90
8408;DHT22;4241;48.452;9.216;2023-08-31T15:16:19;19.90;99.90
8408;DHT22;4241;48.452;9.216;2023-08-31T15:18:46;19.60;99.90
8408;DHT22;4241;48.452;9.216;2023-08-31T15:21:14;19.70;99.90
8408;DHT22;4241;48.452;9.216;2023-08-31T15:23:43;19.50;99.90
8408;DHT22;4241;48.452;9.216;2023-08-31T15:26:10;19.50;99.90
8408;DHT22;4241;48.452;9.216;2023-08-31T15:28:38;19.50;99.90
8408;DHT22;4241;48.452;9.216;2023-08-31T15:31:05;19.50;99.90
8408;DHT22;4241;48.452;9.216;2023-08-31T15:33:32;19.30;99.90
8408;DHT22;4241;48.452;9.216;2023-08-31T15:36:04;19.30;99.90
8408;DHT22;4241;48.452;9.216;2023-08-31T15:38:33;19.20;99.90
8408;DHT22;4241;48.452;9.216;2023-08-31T15:41:02;19.00;99.90
8408;DHT22;4241;48.452;9.216;2023-08-31T15:43:30;19.00;99.90
8408;DHT22;4241;48.452;9.216;2023-08-31T15:45:58;19.00;99.90
8408;DHT22;4241;48.452;9.216;2023-08-31T15:48:25;18.80;99.90
8408;DHT22;4241;48.452;9.216;2023-08-31T15:50:54;18.90;99.90
8408;DHT22;4241;48.452;9.216;2023-08-31T15:53:21;18.90;99.90
8408;DHT22;4241;48.452;9.216;2023-08-31T15:55:50;18.90;99.90
8408;DHT22;4241;48.452;9.216;2023-08-31T15:58:17;18.80;99.90
8408;DHT22;4241;48.452;9.216;2023-08-31T16:00:46;18.70;99.90
8408;DHT22;4241;48.452;9.216;2023-08-31T16:03:13;18.60;99.90
8408;DHT22;4241;48.452;9.216;2023-08-31T16:05:40;18.70;99.90
8408;DHT22;4241;48.452;9.216;2023-08-31T16:08:07;18.70;99.90
8408;DHT22;4241;48.452;9.216;2023-08-31T16:10:34;18.60;99.90
8408;DHT22;4241;48.452;9.216;2023-08-31T16:13:02;18.70;99.90
8408;DHT22;4241;48.452;9.216;2023-08-31T16:15:29;18.70;99.90
8408;DHT22;4241;48.452;9.216;2023-08-31T16:17:56;18.70;99.90
8408;DHT22;4241;48.452;9.216;2023-08-31T16:20:23;18.90;99.90
8408;DHT22;4241;48.452;9.216;2023-08-31T16:22:50;18.70;99.90
8408;DHT22;4241;48.452;9.216;2023-08-31T16:25:17;18.80;99.90
8408;DHT22;4241;48.452;9.216;2023-08-31T16:27:44;18.80;99.90
8408;DHT22;4241;48.452;9.216;2023-08-31T16:30:13;18.80;99.90
8408;DHT22;4241;48.452;9.216;2023-08-31T16:32:41;18.90;99.90
8408;DHT22;4241;48.452;9.216;2023-08-31T16:37:37;18.80;99.90
8408;DHT22;4241;48.452;9.216;2023-08-31T16:40:07;18.80;99.90
8408;DHT22;4241;48.452;9.216;2023-08-31T16:42:34;18.70;99.90
8408;DHT22;4241;48.452;9.216;2023-08-31T16:45:02;18.80;99.90
8408;DHT22;4241;48.452;9.216;2023-08-31T16:47:30;18.70;99.90
8408;DHT22;4241;48.452;9.216;2023-08-31T16:49:58;18.60;99.90
8408;DHT22;4241;48.452;9.216;2023-08-31T16:52:25;18.70;99.90
8408;DHT22;4241;48.452;9.216;2023-08-31T16:54:53;18.60;99.90
8408;DHT22;4241;48.452;9.216;2023-08-31T16:57:19;18.70;99.90
8408;DHT22;4241;48.452;9.216;2023-08-31T16:59:46;18.60;99.90
8408;DHT22;4241;48.452;9.216;2023-08-31T17:02:13;18.50;99.90
8408;DHT22;4241;48.452;9.216;2023-08-31T17:04:41;18.60;99.90
8408;DHT22;4241;48.452;9.216;2023-08-31T17:07:08;18.40;99.90
8408;DHT22;4241;48.452;9.216;2023-08-31T17:09:34;18.50;99.90
8408;DHT22;4241;48.452;9.216;2023-08-31T17:12:01;18.40;99.90
8408;DHT22;4241;48.452;9.216;2023-08-31T17:14:28;18.40;99.90
8408;DHT22;4241;48.452;9.216;2023-08-31T17:16:55;18.30;99.90
8408;DHT22;4241;48.452;9.216;2023-08-31T17:19:26;18.20;99.90
8408;DHT22;4241;48.452;9.216;2023-08-31T17:21:54;18.20;99.90
8408;DHT22;4241;48.452;9.216;2023-08-31T17:24:21;18.10;99.90
8408;DHT22;4241;48.452;9.216;2023-08-31T17:26:48;18.20;99.90
8408;DHT22;4241;48.452;9.216;2023-08-31T17:29:15;18.00;99.90
8408;DHT22;4241;48.452;9.216;2023-08-31T17:31:41;17.90;99.90
8408;DHT22;4241;48.452;9.216;2023-08-31T17:34:08;18.10;99.90
8408;DHT22;4241;48.452;9.216;2023-08-31T17:36:37;18.00;99.90
8408;DHT22;4241;48.452;9.216;2023-08-31T17:39:06;18.00;99.90
8408;DHT22;4241;48.452;9.216;2023-08-31T17:44:00;18.00;99.90
8408;DHT22;4241;48.452;9.216;2023-08-31T17:46:28;17.80;99.90
8408;DHT22;4241;48.452;9.216;2023-08-31T17:48:55;17.90;99.90
8408;DHT22;4241;48.452;9.216;2023-08-31T17:51:22;17.80;99.90
8408;DHT22;4241;48.452;9.216;2023-08-31T17:53:49;17.80;99.90
8408;DHT22;4241;48.452;9.216;2023-08-31T17:56:21;17.80;99.90
8408;DHT22;4241;48.452;9.216;2023-08-31T18:01:17;17.70;99.90
8408;DHT22;4241;48.452;9.216;2023-08-31T18:03:44;17.70;99.90
8408;DHT22;4241;48.452;9.216;2023-08-31T18:06:11;17.50;99.90
8408;DHT22;4241;48.452;9.216;2023-08-31T18:08:38;17.60;99.90
8408;DHT22;4241;48.452;9.216;2023-08-31T18:11:06;17.70;99.90
8408;DHT22;4241;48.452;9.216;2023-08-31T18:13:34;17.60;99.90
8408;DHT22;4241;48.452;9.216;2023-08-31T18:16:01;17.60;99.90
8408;DHT22;4241;48.452;9.216;2023-08-31T18:18:31;17.60;99.90
8408;DHT22;4241;48.452;9.216;2023-08-31T18:20:58;17.60;99.90
8408;DHT22;4241;48.452;9.216;2023-08-31T18:23:25;17.60;99.90
8408;DHT22;4241;48.452;9.216;2023-08-31T18:25:52;17.40;99.90
8408;DHT22;4241;48.452;9.216;2023-08-31T18:28:19;17.50;99.90
8408;DHT22;4241;48.452;9.216;2023-08-31T18:30:53;17.50;99.90
8408;DHT22;4241;48.452;9.216;2023-08-31T18:33:20;17.50;99.90